Time;durP1;ratioP1;P1;durP2;ratioP2;P2;SDS_P1;SDS_P2;PMS_P1;PMS_P2;Temp;Humidity;BMP_temperature;BMP_pressure;BME280_temperature;BME280_humidity;BME280_pressure;Samples;Min_cycle;Max_cycle;Signal;HPM_P1;HPM_P2
2022/08/16 00:00:19;;;;;;;24.70;17.10;;;21.00;99.90;;;;;;5033365;28;20037;-64
2022/08/16 00:02:45;;;;;;;24.40;16.52;;;20.90;99.90;;;;;;5054117;28;20050;-64
2022/08/16 00:05:12;;;;;;;26.65;18.30;;;21.00;99.90;;;;;;5071485;28;20033;-64
2022/08/16 00:07:39;;;;;;;24.08;17.90;;;21.00;99.90;;;;;;5065581;28;20032;-65
2022/08/16 00:10:07;;;;;;;29.80;21.33;;;21.10;99.90;;;;;;5041198;28;20487;-64
2022/08/16 00:12:33;;;;;;;31.23;22.63;;;21.10;99.90;;;;;;5069977;28;20044;-64
2022/08/16 00:15:01;;;;;;;24.83;20.08;;;21.20;99.90;;;;;;5072132;28;20114;-64
2022/08/16 00:17:27;;;;;;;26.40;21.50;;;21.20;99.90;;;;;;5058937;28;20033;-64
2022/08/16 00:19:53;;;;;;;26.60;19.40;;;21.20;99.90;;;;;;5047061;28;20059;-64
2022/08/16 00:22:19;;;;;;;27.90;21.35;;;21.10;99.90;;;;;;5040451;28;20123;-64
2022/08/16 00:24:45;;;;;;;27.30;24.40;;;21.00;99.90;;;;;;5055236;28;20115;-64
2022/08/16 00:27:11;;;;;;;28.58;20.42;;;21.00;99.90;;;;;;5061341;28;20100;-64
2022/08/16 00:29:37;;;;;;;24.55;20.10;;;21.00;99.90;;;;;;5070956;28;20082;-64
2022/08/16 00:32:05;;;;;;;24.15;16.88;;;21.00;99.90;;;;;;5064205;28;20090;-64
2022/08/16 00:34:31;;;;;;;22.83;17.58;;;20.90;99.90;;;;;;5046918;28;20557;-65
2022/08/16 00:36:57;;;;;;;23.95;18.58;;;20.80;99.90;;;;;;5070988;28;20534;-64
2022/08/16 00:39:23;;;;;;;34.65;18.38;;;20.70;99.90;;;;;;5070969;28;20119;-64
2022/08/16 00:41:49;;;;;;;22.30;17.92;;;20.60;99.90;;;;;;5057356;28;20043;-64
2022/08/16 00:44:18;;;;;;;22.98;17.30;;;20.50;99.90;;;;;;5054497;28;20024;-64
2022/08/16 00:46:52;;;;;;;22.13;18.05;;;20.40;99.90;;;;;;5054899;28;20036;-64
2022/08/16 00:49:17;;;;;;;25.48;18.65;;;20.40;99.90;;;;;;5070969;28;20052;-64
2022/08/16 00:51:43;;;;;;;25.15;17.02;;;20.40;99.90;;;;;;5037835;28;20078;-63
2022/08/16 00:54:09;;;;;;;23.77;18.23;;;20.40;99.90;;;;;;5065938;28;20036;-64
2022/08/16 00:56:38;;;;;;;24.10;17.85;;;20.30;99.90;;;;;;5071168;28;20512;-64
2022/08/16 00:59:07;;;;;;;25.00;18.17;;;20.30;99.90;;;;;;5044391;28;20036;-64
2022/08/16 01:01:33;;;;;;;26.10;17.98;;;20.30;99.90;;;;;;5059590;28;20525;-64
2022/08/16 01:03:59;;;;;;;21.77;17.42;;;20.30;99.90;;;;;;5070689;28;20033;-64
2022/08/16 01:06:26;;;;;;;25.75;19.95;;;20.30;99.90;;;;;;5063262;28;21147;-64
2022/08/16 01:08:54;;;;;;;29.20;21.10;;;20.30;99.90;;;;;;5058215;28;20043;-64
2022/08/16 01:11:24;;;;;;;29.45;20.45;;;20.40;99.90;;;;;;5070196;28;20037;-64
2022/08/16 01:13:55;;;;;;;30.02;21.23;;;20.40;99.90;;;;;;5070489;28;20040;-65
2022/08/16 01:16:24;;;;;;;28.50;20.77;;;20.40;99.90;;;;;;5053292;28;20036;-64
2022/08/16 01:19:00;;;;;;;30.67;20.35;;;20.40;99.90;;;;;;5062793;28;20075;-64
2022/08/16 01:21:43;;;;;;;30.00;21.88;;;20.40;99.90;;;;;;5070629;28;20040;-63
2022/08/16 01:24:24;;;;;;;30.35;22.38;;;20.50;99.90;;;;;;5065549;28;20119;-64
2022/08/16 01:26:53;;;;;;;29.23;21.75;;;20.50;99.90;;;;;;5052234;28;20509;-63
2022/08/16 01:29:26;;;;;;;29.98;23.23;;;20.50;99.90;;;;;;5070021;28;20409;-64
2022/08/16 01:31:52;;;;;;;32.63;23.65;;;20.50;99.90;;;;;;5059750;28;20115;-63
2022/08/16 01:34:18;;;;;;;34.47;29.10;;;20.60;99.90;;;;;;5062369;28;20041;-65
2022/08/16 01:36:44;;;;;;;35.55;29.08;;;20.60;99.90;;;;;;5070495;28;20107;-64
2022/08/16 01:39:14;;;;;;;36.20;29.30;;;20.60;99.90;;;;;;5070242;28;20037;-63
2022/08/16 01:41:40;;;;;;;32.70;29.20;;;20.70;99.90;;;;;;5059441;28;20037;-63
2022/08/16 01:44:06;;;;;;;29.95;26.60;;;20.60;99.90;;;;;;5062799;28;20036;-63
2022/08/16 01:46:34;;;;;;;31.25;26.80;;;20.40;99.90;;;;;;5076923;28;20044;-64
2022/08/16 01:49:11;;;;;;;33.10;27.60;;;20.40;99.90;;;;;;5056709;28;20060;-64
2022/08/16 01:51:39;;;;;;;30.60;26.95;;;20.30;99.90;;;;;;5068969;28;20120;-64
2022/08/16 01:54:05;;;;;;;30.58;27.35;;;20.20;99.90;;;;;;5076965;28;20076;-63
2022/08/16 01:56:31;;;;;;;37.00;28.88;;;20.00;99.90;;;;;;5076611;28;20086;-63
2022/08/16 01:59:01;;;;;;;36.00;26.58;;;20.00;99.90;;;;;;5056739;28;20039;-64
2022/08/16 02:01:28;;;;;;;34.17;29.40;;;19.90;99.90;;;;;;5071722;28;20088;-63
2022/08/16 02:03:53;;;;;;;39.08;29.52;;;19.90;99.90;;;;;;5076991;28;20067;-64
2022/08/16 02:06:19;;;;;;;37.65;28.83;;;19.80;99.90;;;;;;5056871;28;20519;-63
2022/08/16 02:08:46;;;;;;;32.13;28.23;;;19.80;99.90;;;;;;5068536;28;20609;-63
2022/08/16 02:11:12;;;;;;;33.25;28.23;;;19.70;99.90;;;;;;5076356;28;20830;-64
2022/08/16 02:13:41;;;;;;;36.17;29.65;;;19.70;99.90;;;;;;5060319;28;20080;-64
2022/08/16 02:16:09;;;;;;;41.30;30.75;;;19.60;99.90;;;;;;5054082;28;20045;-64
2022/08/16 02:18:35;;;;;;;39.10;32.28;;;19.60;99.90;;;;;;5076597;28;20033;-63
2022/08/16 02:21:02;;;;;;;27.40;24.60;;;19.50;99.90;;;;;;5072629;28;20041;-64
2022/08/16 02:23:27;;;;;;;32.58;28.77;;;19.50;99.90;;;;;;5053026;28;20037;-64
2022/08/16 02:25:53;;;;;;;33.25;28.67;;;19.50;99.90;;;;;;5076556;28;20390;-64
2022/08/16 02:28:19;;;;;;;35.67;29.85;;;19.50;99.90;;;;;;5076850;28;20129;-64
2022/08/16 02:30:46;;;;;;;35.35;31.13;;;19.50;99.90;;;;;;5064438;28;20035;-64
2022/08/16 02:33:12;;;;;;;35.00;29.90;;;19.40;99.90;;;;;;5061648;28;20501;-64
2022/08/16 02:35:38;;;;;;;33.97;29.33;;;19.40;99.90;;;;;;5076411;28;20542;-64
2022/08/16 02:38:05;;;;;;;34.08;29.25;;;19.40;99.90;;;;;;5065134;28;20392;-64
2022/08/16 02:40:31;;;;;;;24.02;21.42;;;19.40;99.90;;;;;;5062496;28;20044;-64
2022/08/16 02:42:58;;;;;;;28.25;24.45;;;19.40;99.90;;;;;;5076002;28;20109;-64
2022/08/16 02:45:26;;;;;;;31.70;25.35;;;19.30;99.90;;;;;;5073849;28;20036;-64
2022/08/16 02:47:53;;;;;;;33.80;28.27;;;19.20;99.90;;;;;;5048915;28;20050;-64
2022/08/16 02:50:19;;;;;;;28.60;25.30;;;19.20;99.90;;;;;;5068181;28;20032;-64
2022/08/16 02:52:45;;;;;;;36.08;27.58;;;19.10;99.90;;;;;;5055883;28;20107;-64
2022/08/16 02:55:11;;;;;;;28.33;25.33;;;19.00;99.90;;;;;;5043969;28;20457;-64
2022/08/16 02:57:37;;;;;;;30.88;25.17;;;19.10;99.90;;;;;;5070845;28;20055;-64
2022/08/16 03:00:08;;;;;;;24.05;20.10;;;19.10;99.90;;;;;;5073129;28;20044;-64
2022/08/16 03:02:34;;;;;;;21.85;18.70;;;18.90;99.90;;;;;;5052927;28;20029;-64
2022/08/16 03:05:00;;;;;;;17.25;15.45;;;18.60;99.90;;;;;;5048851;28;20035;-64
2022/08/16 03:07:26;;;;;;;11.95;10.75;;;18.40;99.90;;;;;;5071560;28;20033;-64
2022/08/16 03:09:52;;;;;;;15.00;13.35;;;18.30;99.90;;;;;;5073502;28;20608;-64
2022/08/16 03:12:18;;;;;;;17.20;15.48;;;18.20;99.90;;;;;;5053026;28;20039;-64
2022/08/16 03:14:45;;;;;;;38.85;16.67;;;18.20;99.90;;;;;;5063901;28;20041;-64
2022/08/16 03:17:11;;;;;;;23.05;20.52;;;18.10;99.90;;;;;;5065758;28;20037;-64
2022/08/16 03:19:36;;;;;;;16.83;15.23;;;18.10;99.90;;;;;;5049096;28;20095;-64
2022/08/16 03:22:02;;;;;;;21.08;17.90;;;18.20;99.90;;;;;;5060222;28;20071;-64
2022/08/16 03:24:29;;;;;;;22.05;19.70;;;18.10;99.90;;;;;;5072632;28;20532;-64
2022/08/16 03:26:58;;;;;;;20.90;18.65;;;18.20;99.90;;;;;;5072792;28;20055;-64
2022/08/16 03:29:26;;;;;;;29.27;19.05;;;18.20;99.90;;;;;;5053496;28;20487;-64
2022/08/16 03:31:52;;;;;;;31.08;17.70;;;18.10;99.90;;;;;;5066346;28;20068;-64
2022/08/16 03:34:18;;;;;;;24.35;20.00;;;18.00;99.90;;;;;;5072285;28;20048;-64
2022/08/16 03:36:44;;;;;;;19.50;17.48;;;17.80;99.90;;;;;;5063507;28;20032;-64
2022/08/16 03:39:11;;;;;;;25.75;22.95;;;17.70;99.90;;;;;;5062499;28;20086;-64
2022/08/16 03:41:36;;;;;;;25.30;22.48;;;17.70;99.90;;;;;;5062416;28;20041;-64
2022/08/16 03:44:06;;;;;;;27.10;22.88;;;17.80;99.90;;;;;;5048442;28;20121;-64
2022/08/16 03:46:32;;;;;;;29.50;23.25;;;17.80;99.90;;;;;;5042454;28;20442;-64
2022/08/16 03:48:57;;;;;;;30.48;23.52;;;17.80;99.90;;;;;;5056655;28;20478;-64
2022/08/16 03:51:23;;;;;;;29.33;24.08;;;17.80;99.90;;;;;;5054452;28;20045;-64
2022/08/16 03:53:49;;;;;;;35.83;26.30;;;17.80;99.90;;;;;;5065106;28;20036;-64
2022/08/16 03:56:14;;;;;;;31.63;23.52;;;17.90;99.90;;;;;;5046972;28;20029;-64
2022/08/16 03:58:40;;;;;;;36.65;28.13;;;17.90;99.90;;;;;;5048675;28;20075;-64
2022/08/16 04:01:06;;;;;;;38.47;28.35;;;17.90;99.90;;;;;;5066883;28;20044;-64
2022/08/16 04:03:32;;;;;;;29.83;16.77;;;17.90;99.90;;;;;;5055177;28;20499;-64
2022/08/16 04:05:58;;;;;;;31.90;17.35;;;17.80;99.90;;;;;;5046596;28;20033;-64
2022/08/16 04:08:23;;;;;;;28.08;17.10;;;17.80;99.90;;;;;;5046454;28;20124;-64
2022/08/16 04:10:50;;;;;;;26.50;16.45;;;17.80;99.90;;;;;;5041294;28;20034;-64
2022/08/16 04:13:16;;;;;;;29.40;17.88;;;17.80;99.90;;;;;;5039157;28;20095;-64
2022/08/16 04:15:42;;;;;;;39.80;20.13;;;17.90;99.90;;;;;;5057605;28;20036;-64
2022/08/16 04:18:08;;;;;;;27.77;17.52;;;17.90;99.90;;;;;;5061192;28;20498;-64
2022/08/16 04:20:34;;;;;;;32.85;19.67;;;17.90;99.90;;;;;;5052334;28;20037;-64
2022/08/16 04:23:00;;;;;;;33.88;17.60;;;17.90;99.90;;;;;;5071089;28;20073;-64
2022/08/16 04:25:27;;;;;;;25.48;15.55;;;17.80;99.90;;;;;;5071421;28;20482;-64
2022/08/16 04:27:53;;;;;;;34.90;16.80;;;17.80;99.90;;;;;;5062804;28;20034;-64
2022/08/16 04:30:21;;;;;;;29.67;17.27;;;17.80;99.90;;;;;;5031276;28;20132;-64
2022/08/16 04:32:47;;;;;;;34.10;18.23;;;17.80;99.90;;;;;;5049074;28;20545;-64
2022/08/16 04:35:15;;;;;;;26.42;16.77;;;17.80;99.90;;;;;;5047752;28;20427;-64
2022/08/16 04:37:45;;;;;;;31.35;21.83;;;17.60;99.90;;;;;;5047769;28;20478;-64
2022/08/16 04:40:12;;;;;;;29.02;12.65;;;17.60;99.90;;;;;;5070778;28;20051;-64
2022/08/16 04:42:39;;;;;;;26.35;13.65;;;17.70;99.90;;;;;;5070589;28;20406;-64
2022/08/16 04:45:10;;;;;;;27.88;14.57;;;17.80;99.90;;;;;;5041023;28;20072;-64
2022/08/16 04:47:36;;;;;;;29.77;15.60;;;17.80;99.90;;;;;;5053760;28;20045;-65
2022/08/16 04:50:17;;;;;;;27.42;14.57;;;17.90;99.90;;;;;;5056334;28;20048;-64
2022/08/16 04:52:47;;;;;;;30.60;15.45;;;17.90;99.90;;;;;;5029599;28;20127;-64
2022/08/16 04:55:18;;;;;;;28.13;15.43;;;18.00;99.90;;;;;;5049281;28;20047;-64
2022/08/16 04:57:47;;;;;;;25.65;14.25;;;18.00;99.90;;;;;;5044273;28;20025;-64
2022/08/16 05:00:16;;;;;;;29.55;16.17;;;17.90;99.90;;;;;;5054661;28;20033;-64
2022/08/16 05:02:42;;;;;;;29.35;15.43;;;18.00;99.90;;;;;;5032177;28;20036;-64
2022/08/16 05:05:09;;;;;;;34.60;16.17;;;18.00;99.90;;;;;;5053124;28;20033;-64
2022/08/16 05:07:35;;;;;;;21.75;13.55;;;18.00;99.90;;;;;;5056328;28;20030;-64
2022/08/16 05:10:02;;;;;;;24.67;14.70;;;18.00;99.90;;;;;;5056210;28;20399;-63
2022/08/16 05:12:27;;;;;;;34.05;21.73;;;18.10;99.90;;;;;;5060709;28;20048;-64
2022/08/16 05:14:53;;;;;;;31.08;17.67;;;18.10;99.90;;;;;;5043287;28;20029;-64
2022/08/16 05:17:19;;;;;;;31.77;19.60;;;18.10;99.90;;;;;;5041797;28;20034;-64
2022/08/16 05:19:45;;;;;;;29.73;19.25;;;18.20;99.90;;;;;;5070195;28;20568;-64
2022/08/16 05:22:11;;;;;;;30.95;20.33;;;18.20;99.90;;;;;;5070346;28;20036;-64
2022/08/16 05:24:37;;;;;;;29.80;20.65;;;18.30;99.90;;;;;;5036138;28;20134;-64
2022/08/16 05:27:03;;;;;;;33.25;20.92;;;18.30;99.90;;;;;;5048513;28;20445;-64
2022/08/16 05:29:29;;;;;;;31.52;20.95;;;18.40;99.90;;;;;;5049806;28;20116;-64
2022/08/16 05:31:54;;;;;;;33.83;21.48;;;18.40;99.90;;;;;;5043923;28;20449;-64
2022/08/16 05:34:20;;;;;;;41.97;24.38;;;18.50;99.90;;;;;;5063555;28;20115;-64
2022/08/16 05:36:51;;;;;;;32.33;20.75;;;18.60;99.90;;;;;;5070452;28;20047;-64
2022/08/16 05:39:16;;;;;;;35.27;21.03;;;18.70;99.90;;;;;;5066166;28;20032;-64
2022/08/16 05:41:42;;;;;;;33.88;21.45;;;18.80;99.90;;;;;;5054482;28;20047;-64
2022/08/16 05:44:08;;;;;;;37.08;21.25;;;18.90;99.90;;;;;;5055993;28;20079;-64
2022/08/16 05:46:33;;;;;;;32.60;21.33;;;19.00;99.90;;;;;;5047520;28;20503;-64
2022/08/16 05:49:00;;;;;;;37.15;22.75;;;19.10;99.90;;;;;;5061229;28;20040;-64
2022/08/16 05:51:25;;;;;;;36.40;21.75;;;19.40;99.90;;;;;;5069943;28;20082;-64
2022/08/16 05:53:51;;;;;;;38.80;22.55;;;19.60;99.90;;;;;;5068610;28;20072;-64
2022/08/16 05:56:17;;;;;;;35.90;22.48;;;19.80;99.90;;;;;;5065147;28;20036;-63
2022/08/16 05:58:42;;;;;;;31.65;21.50;;;20.00;99.90;;;;;;5039297;28;20036;-64
2022/08/16 06:01:08;;;;;;;34.08;21.38;;;20.10;99.90;;;;;;5049725;28;20032;-65
2022/08/16 06:03:34;;;;;;;32.10;20.55;;;20.30;99.90;;;;;;5060661;28;20044;-63
2022/08/16 06:06:00;;;;;;;33.78;21.20;;;20.40;99.90;;;;;;5048783;28;20548;-64
2022/08/16 06:08:26;;;;;;;26.00;15.43;;;20.60;99.90;;;;;;5069591;28;20473;-64
2022/08/16 06:10:51;;;;;;;27.05;15.25;;;20.60;99.90;;;;;;5057486;28;20044;-63
2022/08/16 06:13:17;;;;;;;29.30;18.00;;;20.70;99.90;;;;;;5064109;22;20033;-63
2022/08/16 06:15:43;;;;;;;28.08;18.92;;;20.60;99.90;;;;;;5064750;28;20048;-63
2022/08/16 06:18:08;;;;;;;26.77;17.98;;;20.60;99.90;;;;;;5059808;28;20041;-64
2022/08/16 06:20:34;;;;;;;23.38;14.05;;;20.50;99.90;;;;;;5063587;28;20386;-67
2022/08/16 06:22:59;;;;;;;27.98;16.50;;;20.40;99.90;;;;;;5068023;28;20121;-63
2022/08/16 06:25:26;;;;;;;24.45;16.13;;;20.40;99.90;;;;;;5068214;28;20041;-63
2022/08/16 06:27:53;;;;;;;33.60;17.20;;;20.40;99.90;;;;;;5069387;28;20032;-65
2022/08/16 06:30:19;;;;;;;26.05;17.05;;;20.40;99.90;;;;;;5069405;28;20042;-64
2022/08/16 06:32:46;;;;;;;25.77;17.13;;;20.30;99.90;;;;;;5065064;28;20041;-62
2022/08/16 06:35:12;;;;;;;27.83;16.58;;;20.40;99.90;;;;;;5049639;28;20059;-64
2022/08/16 06:37:39;;;;;;;26.90;16.38;;;20.40;99.90;;;;;;5037518;28;20041;-63
2022/08/16 06:40:07;;;;;;;24.35;16.88;;;20.40;99.90;;;;;;5047125;28;20068;-63
2022/08/16 06:42:32;;;;;;;28.95;17.50;;;20.50;99.90;;;;;;5066737;28;20542;-63
2022/08/16 06:44:58;;;;;;;29.83;17.50;;;20.50;99.90;;;;;;5070760;28;20037;-64
2022/08/16 06:47:24;;;;;;;24.20;16.45;;;20.70;99.90;;;;;;5043998;28;20037;-64
2022/08/16 06:49:49;;;;;;;25.75;16.15;;;20.80;99.90;;;;;;5064678;28;20032;-65
2022/08/16 06:52:15;;;;;;;26.15;16.40;;;20.80;99.90;;;;;;5058295;28;20498;-65
2022/08/16 06:54:41;;;;;;;27.80;16.38;;;20.80;99.90;;;;;;5049117;28;20482;-64
2022/08/16 06:57:09;;;;;;;25.20;16.80;;;20.80;99.90;;;;;;5069676;28;20028;-66
2022/08/16 06:59:35;;;;;;;23.67;15.73;;;20.70;99.90;;;;;;5070303;28;20043;-65
2022/08/16 07:02:01;;;;;;;23.65;16.23;;;20.70;99.90;;;;;;5047272;28;20126;-65
2022/08/16 07:04:27;;;;;;;18.23;10.40;;;20.80;99.90;;;;;;5059586;28;20758;-65
2022/08/16 07:06:53;;;;;;;21.65;11.35;;;20.90;99.90;;;;;;5068089;28;20476;-66
2022/08/16 07:09:19;;;;;;;24.80;13.93;;;21.00;99.90;;;;;;5041780;28;20099;-63
2022/08/16 07:11:45;;;;;;;22.25;11.27;;;21.10;99.90;;;;;;5051481;28;20530;-66
2022/08/16 07:14:11;;;;;;;23.70;11.48;;;21.20;99.90;;;;;;5060006;28;20074;-65
2022/08/16 07:16:40;;;;;;;22.98;11.93;;;21.30;99.90;;;;;;5038765;28;20045;-65
2022/08/16 07:19:09;;;;;;;24.35;11.82;;;21.30;99.90;;;;;;5041131;28;20518;-65
2022/08/16 07:21:35;;;;;;;23.38;12.68;;;21.50;99.90;;;;;;5035156;28;20320;-66
2022/08/16 07:24:03;;;;;;;22.60;11.80;;;21.50;99.90;;;;;;5032452;28;20116;-65
2022/08/16 07:26:29;;;;;;;22.58;12.35;;;21.60;99.90;;;;;;5066981;28;20040;-65
2022/08/16 07:28:55;;;;;;;24.42;12.18;;;21.70;99.90;;;;;;5066289;28;20041;-70
2022/08/16 07:31:20;;;;;;;22.63;11.80;;;21.80;99.90;;;;;;5031047;28;20052;-67
2022/08/16 07:33:47;;;;;;;22.60;12.38;;;21.90;99.90;;;;;;5054849;28;20192;-65
2022/08/16 07:36:14;;;;;;;22.88;12.82;;;21.90;99.90;;;;;;5067952;28;20098;-65
2022/08/16 07:38:40;;;;;;;29.23;12.52;;;22.10;99.90;;;;;;5070546;28;20123;-65
2022/08/16 07:41:06;;;;;;;23.33;12.73;;;22.10;99.90;;;;;;5050034;28;20040;-65
2022/08/16 07:43:32;;;;;;;22.38;12.93;;;22.20;99.90;;;;;;5060512;28;20045;-65
2022/08/16 07:45:59;;;;;;;27.08;14.15;;;22.30;99.90;;;;;;5037868;28;20747;-66
2022/08/16 07:48:25;;;;;;;24.45;13.30;;;22.30;99.90;;;;;;5069313;28;20290;-65
2022/08/16 07:50:51;;;;;;;22.92;12.63;;;22.30;99.90;;;;;;5071857;28;20538;-65
2022/08/16 07:53:17;;;;;;;23.75;14.45;;;22.50;99.90;;;;;;5063582;28;20086;-67
2022/08/16 07:55:43;;;;;;;23.65;12.77;;;22.60;99.90;;;;;;5048127;28;20200;-68
2022/08/16 07:58:09;;;;;;;22.98;12.85;;;22.60;99.90;;;;;;5062068;28;20036;-68
2022/08/16 08:00:35;;;;;;;20.75;12.40;;;22.80;99.90;;;;;;5051356;28;20037;-66
2022/08/16 08:03:01;;;;;;;24.10;13.10;;;22.90;99.90;;;;;;5060881;28;20112;-68
2022/08/16 08:05:27;;;;;;;22.08;12.35;;;23.00;99.90;;;;;;5071372;28;20162;-68
2022/08/16 08:07:53;;;;;;;25.00;12.65;;;23.00;99.90;;;;;;5071841;28;20486;-67
2022/08/16 08:10:21;;;;;;;23.08;12.82;;;23.10;99.90;;;;;;5051668;28;20041;-67
2022/08/16 08:12:48;;;;;;;22.55;12.40;;;23.20;99.90;;;;;;5047776;28;20060;-67
2022/08/16 08:15:14;;;;;;;20.60;12.60;;;23.20;99.90;;;;;;5063609;28;20032;-67
2022/08/16 08:17:40;;;;;;;21.45;12.55;;;23.30;99.90;;;;;;5061416;28;20028;-67
2022/08/16 08:20:10;;;;;;;22.48;12.93;;;23.40;99.90;;;;;;5046521;28;20076;-66
2022/08/16 08:22:38;;;;;;;27.80;12.73;;;23.40;99.90;;;;;;5059948;28;20120;-66
2022/08/16 08:25:05;;;;;;;23.23;15.93;;;23.60;99.90;;;;;;5018691;28;20591;-67
2022/08/16 08:27:31;;;;;;;25.65;14.75;;;23.70;99.90;;;;;;5037409;28;20487;-67
2022/08/16 08:29:57;;;;;;;24.40;15.98;;;23.80;99.90;;;;;;5056863;28;20031;-67
2022/08/16 08:32:27;;;;;;;33.60;16.02;;;23.90;99.90;;;;;;5068650;28;20102;-67
2022/08/16 08:34:53;;;;;;;24.83;15.07;;;23.90;99.90;;;;;;5057958;28;20041;-67
2022/08/16 08:37:21;;;;;;;25.75;14.65;;;23.90;99.90;;;;;;5040513;28;20053;-67
2022/08/16 08:39:47;;;;;;;22.63;13.00;;;24.00;99.90;;;;;;5061668;28;20037;-66
2022/08/16 08:42:14;;;;;;;23.38;13.30;;;24.00;99.90;;;;;;5059670;28;20049;-67
2022/08/16 08:44:40;;;;;;;24.25;14.40;;;24.10;99.90;;;;;;5069125;28;20482;-66
2022/08/16 08:47:07;;;;;;;21.73;12.68;;;24.20;99.90;;;;;;5070724;28;20040;-67
2022/08/16 08:49:34;;;;;;;21.63;13.00;;;24.30;99.90;;;;;;5043724;28;20047;-67
2022/08/16 08:52:00;;;;;;;23.02;11.88;;;24.30;99.90;;;;;;5048958;28;20036;-67
2022/08/16 08:54:26;;;;;;;20.05;12.15;;;24.50;99.90;;;;;;5068471;28;20063;-67
2022/08/16 08:56:53;;;;;;;22.40;15.85;;;24.50;99.90;;;;;;5042217;28;20064;-67
2022/08/16 08:59:18;;;;;;;20.85;14.23;;;24.60;99.90;;;;;;5052564;28;20540;-67
2022/08/16 09:01:46;;;;;;;21.10;13.93;;;24.60;99.90;;;;;;5050716;28;20040;-67
2022/08/16 09:04:12;;;;;;;20.83;13.25;;;24.70;99.90;;;;;;5049826;28;20036;-67
2022/08/16 09:06:37;;;;;;;23.98;13.35;;;24.80;99.90;;;;;;5052900;28;20033;-67
2022/08/16 09:09:04;;;;;;;24.23;14.07;;;24.80;99.90;;;;;;5047320;28;20036;-67
2022/08/16 09:11:32;;;;;;;20.58;12.52;;;24.90;99.90;;;;;;5054738;28;20040;-67
2022/08/16 09:13:58;;;;;;;17.83;12.10;;;25.00;99.90;;;;;;5070150;28;20040;-67
2022/08/16 09:16:23;;;;;;;20.27;12.02;;;25.00;99.90;;;;;;5054174;28;20041;-67
2022/08/16 09:18:49;;;;;;;20.58;12.70;;;25.00;99.90;;;;;;5053499;28;20028;-67
2022/08/16 09:21:15;;;;;;;18.88;12.25;;;25.20;99.90;;;;;;5063949;28;20062;-67
2022/08/16 09:23:41;;;;;;;17.20;11.80;;;25.30;99.90;;;;;;5060229;28;20040;-67
2022/08/16 09:26:09;;;;;;;15.25;9.68;;;25.30;99.90;;;;;;5045271;28;20480;-67
2022/08/16 09:28:36;;;;;;;17.08;11.10;;;25.40;99.90;;;;;;5047178;28;20057;-68
2022/08/16 09:31:03;;;;;;;17.25;11.02;;;25.40;99.90;;;;;;5049479;28;20037;-67
2022/08/16 09:33:29;;;;;;;13.10;8.15;;;25.50;99.00;;;;;;5050055;28;20044;-67
2022/08/16 09:35:55;;;;;;;15.90;10.02;;;25.50;98.20;;;;;;5068374;28;20032;-67
2022/08/16 09:38:23;;;;;;;12.38;8.52;;;25.50;97.00;;;;;;5051421;28;20037;-67
2022/08/16 09:40:49;;;;;;;14.15;9.27;;;25.60;99.30;;;;;;5058001;28;20037;-68
2022/08/16 09:43:18;;;;;;;15.45;9.82;;;25.70;97.70;;;;;;5063758;28;20033;-67
2022/08/16 09:45:45;;;;;;;16.33;8.63;;;25.80;97.00;;;;;;5070143;28;20125;-67
2022/08/16 09:48:13;;;;;;;13.07;8.88;;;25.80;97.30;;;;;;5069540;28;20032;-67
2022/08/16 09:50:42;;;;;;;14.55;8.38;;;25.80;97.40;;;;;;5063025;28;20110;-67
2022/08/16 09:53:12;;;;;;;13.65;8.43;;;25.80;97.60;;;;;;5046094;28;20036;-67
2022/08/16 09:55:39;;;;;;;13.98;8.77;;;26.00;97.10;;;;;;5058491;28;20052;-67
2022/08/16 09:58:05;;;;;;;12.90;8.68;;;26.00;97.80;;;;;;5049122;28;20044;-67
2022/08/16 10:00:31;;;;;;;12.65;7.85;;;26.10;97.00;;;;;;5065524;28;20047;-67
2022/08/16 10:02:57;;;;;;;14.50;8.60;;;26.20;98.80;;;;;;5070047;28;20041;-67
2022/08/16 10:05:23;;;;;;;12.95;10.05;;;26.30;98.10;;;;;;5072385;28;20036;-68
2022/08/16 10:07:52;;;;;;;13.23;9.32;;;26.40;98.40;;;;;;5062268;28;20603;-68
2022/08/16 10:10:22;;;;;;;13.63;9.48;;;26.40;96.50;;;;;;5061295;28;20040;-67
2022/08/16 10:15:33;;;;;;;24.80;10.38;;;26.60;96.00;;;;;;5052106;28;20136;-68
2022/08/16 10:18:00;;;;;;;12.18;9.00;;;26.60;97.10;;;;;;5060017;28;20040;-67
2022/08/16 10:20:27;;;;;;;13.15;9.65;;;26.80;97.30;;;;;;5061257;28;20041;-67
2022/08/16 10:22:54;;;;;;;12.73;8.48;;;26.90;94.90;;;;;;5044714;28;20037;-67
2022/08/16 10:25:20;;;;;;;13.10;8.13;;;26.90;95.90;;;;;;5048971;28;20040;-67
2022/08/16 10:27:46;;;;;;;12.60;8.77;;;26.90;94.80;;;;;;5066243;28;20035;-67
2022/08/16 10:30:14;;;;;;;18.90;10.65;;;27.10;96.80;;;;;;5070433;28;20391;-67
2022/08/16 10:32:40;;;;;;;11.82;9.40;;;27.10;95.60;;;;;;5060380;28;20111;-67
2022/08/16 10:35:06;;;;;;;14.35;9.50;;;27.20;96.00;;;;;;5071561;28;20151;-67
2022/08/16 10:37:32;;;;;;;13.00;8.30;;;27.30;94.40;;;;;;5061730;28;20070;-67
2022/08/16 10:39:58;;;;;;;11.85;8.88;;;27.30;96.40;;;;;;5064935;28;20107;-67
2022/08/16 10:42:24;;;;;;;12.38;7.72;;;27.50;95.60;;;;;;5071455;28;20044;-67
2022/08/16 10:44:49;;;;;;;12.25;7.47;;;27.60;94.70;;;;;;5066422;28;20037;-67
2022/08/16 10:47:15;;;;;;;15.70;8.00;;;27.60;93.90;;;;;;5053766;28;20033;-67
2022/08/16 10:49:41;;;;;;;10.93;7.47;;;27.60;93.90;;;;;;5057249;28;20036;-67
2022/08/16 10:52:07;;;;;;;11.43;8.25;;;27.70;94.10;;;;;;5049591;28;20037;-67
2022/08/16 10:54:33;;;;;;;11.55;6.88;;;27.80;91.60;;;;;;5053511;28;20407;-66
2022/08/16 10:57:00;;;;;;;8.77;6.63;;;27.80;93.00;;;;;;5045290;28;20041;-66
2022/08/16 10:59:30;;;;;;;9.18;6.80;;;27.80;92.40;;;;;;5058930;28;20034;-66
2022/08/16 11:01:56;;;;;;;6.85;5.00;;;27.80;91.00;;;;;;5054116;28;20452;-67
2022/08/16 11:04:22;;;;;;;7.32;5.45;;;27.90;89.00;;;;;;5061671;28;20490;-68
2022/08/16 11:06:47;;;;;;;12.45;7.10;;;27.80;90.20;;;;;;5061935;28;20040;-67
2022/08/16 11:09:13;;;;;;;9.45;6.28;;;28.00;92.40;;;;;;5048353;28;20203;-67
2022/08/16 11:11:39;;;;;;;7.57;5.80;;;28.00;90.90;;;;;;5043191;28;20091;-68
2022/08/16 11:14:05;;;;;;;13.80;5.25;;;28.00;91.10;;;;;;5049046;28;20033;-66
2022/08/16 11:16:32;;;;;;;6.78;4.88;;;28.00;89.20;;;;;;5048651;28;20116;-66
2022/08/16 11:18:58;;;;;;;5.85;4.30;;;28.30;88.80;;;;;;5043283;28;20040;-66
2022/08/16 11:21:24;;;;;;;8.45;5.05;;;28.30;84.70;;;;;;5041589;28;20068;-66
2022/08/16 11:23:54;;;;;;;10.18;5.13;;;28.40;85.00;;;;;;5060854;28;20119;-66
2022/08/16 11:26:21;;;;;;;9.20;4.80;;;28.50;81.30;;;;;;5054940;28;20419;-66
2022/08/16 11:28:49;;;;;;;6.50;5.00;;;28.40;83.10;;;;;;5072509;28;20074;-66
2022/08/16 11:31:15;;;;;;;5.82;4.10;;;28.50;80.20;;;;;;5060080;28;20075;-66
2022/08/16 11:33:41;;;;;;;5.85;4.05;;;28.50;87.80;;;;;;5065019;28;20055;-67
2022/08/16 11:36:07;;;;;;;5.70;4.50;;;28.40;83.30;;;;;;5050348;28;20044;-66
2022/08/16 11:38:33;;;;;;;6.88;4.72;;;28.30;80.60;;;;;;5063552;28;20071;-67
2022/08/16 11:41:00;;;;;;;6.72;4.80;;;28.10;82.00;;;;;;5071630;28;20045;-66
2022/08/16 11:43:32;;;;;;;6.20;5.07;;;27.90;86.60;;;;;;5072233;28;20037;-66
2022/08/16 11:46:00;;;;;;;6.55;4.53;;;27.70;80.80;;;;;;5059031;28;20059;-67
2022/08/16 11:48:27;;;;;;;7.32;4.97;;;27.80;84.80;;;;;;5053714;28;20040;-67
2022/08/16 11:50:54;;;;;;;5.90;5.05;;;27.80;84.50;;;;;;5071655;28;20072;-67
2022/08/16 11:53:23;;;;;;;6.05;4.63;;;28.00;79.40;;;;;;5069058;28;20494;-66
2022/08/16 11:55:49;;;;;;;7.70;4.93;;;28.30;80.30;;;;;;5058822;28;20081;-66
2022/08/16 11:58:15;;;;;;;10.02;4.80;;;28.50;82.10;;;;;;5063627;28;20045;-66
2022/08/16 12:00:43;;;;;;;8.45;4.75;;;28.70;79.10;;;;;;5071462;28;20037;-66
2022/08/16 12:03:10;;;;;;;6.00;4.50;;;28.90;75.40;;;;;;5067020;28;20089;-67
2022/08/16 12:05:37;;;;;;;7.30;5.30;;;29.00;79.10;;;;;;5057260;28;20029;-67
2022/08/16 12:08:06;;;;;;;6.93;5.32;;;29.10;80.20;;;;;;5053876;28;20032;-67
2022/08/16 12:10:34;;;;;;;6.95;4.90;;;29.10;77.70;;;;;;5068173;28;20047;-67
2022/08/16 12:13:00;;;;;;;7.72;4.82;;;29.00;79.60;;;;;;5064467;28;20041;-67
2022/08/16 12:15:26;;;;;;;9.02;4.70;;;29.10;77.50;;;;;;5070847;28;20044;-67
2022/08/16 12:17:53;;;;;;;10.00;5.18;;;29.20;78.60;;;;;;5064292;28;20047;-67
2022/08/16 12:20:24;;;;;;;7.13;5.18;;;29.20;75.00;;;;;;5063558;28;20102;-66
2022/08/16 12:22:51;;;;;;;9.18;4.72;;;29.30;77.20;;;;;;5056276;28;20044;-67
2022/08/16 12:25:19;;;;;;;8.05;4.95;;;29.50;77.30;;;;;;5071569;28;20043;-66
2022/08/16 12:27:48;;;;;;;6.47;4.88;;;29.50;77.70;;;;;;5045584;28;20486;-66
2022/08/16 12:30:18;;;;;;;6.07;4.67;;;29.60;76.30;;;;;;5058369;28;20064;-67